sensor_id;sensor_type;location;lat;lon;timestamp;pressure;altitude;pressure_sealevel;temperature;humidity
41254;BME280;26987;59.928;30.306;2023-11-21T00:01:17;101705.00;;;-3.82;100.00
41254;BME280;26987;59.928;30.306;2023-11-21T00:03:45;101686.22;;;-3.90;100.00
41254;BME280;26987;59.928;30.306;2023-11-21T00:06:13;101698.88;;;-3.82;100.00
41254;BME280;26987;59.928;30.306;2023-11-21T00:08:41;101636.59;;;-4.24;100.00
41254;BME280;26987;59.928;30.306;2023-11-21T00:11:09;101694.59;;;-3.83;100.00
41254;BME280;26987;59.928;30.306;2023-11-21T00:13:38;101681.44;;;-3.98;100.00
41254;BME280;26987;59.928;30.306;2023-11-21T00:16:07;101699.16;;;-3.87;100.00
41254;BME280;26987;59.928;30.306;2023-11-21T00:18:35;101648.16;;;-4.12;100.00
41254;BME280;26987;59.928;30.306;2023-11-21T00:21:03;101676.19;;;-3.98;100.00
41254;BME280;26987;59.928;30.306;2023-11-21T00:23:31;101684.72;;;-3.94;100.00
41254;BME280;26987;59.928;30.306;2023-11-21T00:25:59;101690.47;;;-3.87;100.00
41254;BME280;26987;59.928;30.306;2023-11-21T00:28:27;101703.00;;;-3.78;100.00
41254;BME280;26987;59.928;30.306;2023-11-21T00:30:56;101699.91;;;-3.85;100.00
41254;BME280;26987;59.928;30.306;2023-11-21T00:33:24;101702.44;;;-3.83;100.00
41254;BME280;26987;59.928;30.306;2023-11-21T00:35:53;101702.28;;;-3.80;100.00
41254;BME280;26987;59.928;30.306;2023-11-21T00:38:21;101703.00;;;-3.78;100.00
41254;BME280;26987;59.928;30.306;2023-11-21T00:40:49;101707.16;;;-3.74;100.00
41254;BME280;26987;59.928;30.306;2023-11-21T00:43:17;101705.38;;;-3.73;100.00
41254;BME280;26987;59.928;30.306;2023-11-21T00:45:45;101694.59;;;-3.83;100.00
41254;BME280;26987;59.928;30.306;2023-11-21T00:48:16;101713.16;;;-3.72;100.00
41254;BME280;26987;59.928;30.306;2023-11-21T00:50:45;101717.22;;;-3.66;100.00
41254;BME280;26987;59.928;30.306;2023-11-21T00:53:13;101720.31;;;-3.59;100.00
41254;BME280;26987;59.928;30.306;2023-11-21T00:55:41;101668.72;;;-3.89;99.77
41254;BME280;26987;59.928;30.306;2023-11-21T00:58:09;101718.28;;;-3.54;99.73
41254;BME280;26987;59.928;30.306;2023-11-21T01:00:37;101717.16;;;-3.50;99.23
41254;BME280;26987;59.928;30.306;2023-11-21T01:03:06;101705.53;;;-3.60;99.04
41254;BME280;26987;59.928;30.306;2023-11-21T01:05:37;101725.97;;;-3.51;99.30
41254;BME280;26987;59.928;30.306;2023-11-21T01:08:05;101738.75;;;-3.61;98.76
41254;BME280;26987;59.928;30.306;2023-11-21T01:10:33;101713.88;;;-3.84;99.87
41254;BME280;26987;59.928;30.306;2023-11-21T01:13:02;101730.94;;;-3.77;99.40
41254;BME280;26987;59.928;30.306;2023-11-21T01:15:31;101705.28;;;-4.02;100.00
41254;BME280;26987;59.928;30.306;2023-11-21T01:17:59;101737.97;;;-3.94;100.00
41254;BME280;26987;59.928;30.306;2023-11-21T01:20:27;101744.00;;;-4.08;100.00
41254;BME280;26987;59.928;30.306;2023-11-21T01:22:56;101742.16;;;-4.22;100.00
41254;BME280;26987;59.928;30.306;2023-11-21T01:25:24;101744.84;;;-4.39;100.00
41254;BME280;26987;59.928;30.306;2023-11-21T01:27:53;101702.06;;;-4.88;100.00
41254;BME280;26987;59.928;30.306;2023-11-21T01:30:21;101731.81;;;-4.73;100.00
41254;BME280;26987;59.928;30.306;2023-11-21T01:32:49;101740.84;;;-4.79;100.00
41254;BME280;26987;59.928;30.306;2023-11-21T01:35:17;101733.31;;;-5.03;100.00
41254;BME280;26987;59.928;30.306;2023-11-21T01:37:46;101733.69;;;-5.09;100.00
41254;BME280;26987;59.928;30.306;2023-11-21T01:40:16;101748.44;;;-5.08;100.00
41254;BME280;26987;59.928;30.306;2023-11-21T01:42:45;101734.97;;;-5.18;100.00
41254;BME280;26987;59.928;30.306;2023-11-21T01:45:14;101730.91;;;-5.24;100.00
41254;BME280;26987;59.928;30.306;2023-11-21T01:47:42;101738.59;;;-5.21;100.00
41254;BME280;26987;59.928;30.306;2023-11-21T01:50:15;101742.59;;;-5.13;100.00
41254;BME280;26987;59.928;30.306;2023-11-21T01:52:45;101745.28;;;-5.15;100.00
41254;BME280;26987;59.928;30.306;2023-11-21T01:55:16;101745.75;;;-5.07;100.00
41254;BME280;26987;59.928;30.306;2023-11-21T01:57:46;101712.06;;;-5.13;100.00
41254;BME280;26987;59.928;30.306;2023-11-21T02:00:14;101744.53;;;-4.83;100.00
41254;BME280;26987;59.928;30.306;2023-11-21T02:02:46;101732.53;;;-4.87;100.00
41254;BME280;26987;59.928;30.306;2023-11-21T02:05:16;101728.25;;;-4.88;100.00
41254;BME280;26987;59.928;30.306;2023-11-21T02:07:45;101748.63;;;-4.77;100.00
41254;BME280;26987;59.928;30.306;2023-11-21T02:10:24;101719.94;;;-4.97;100.00
41254;BME280;26987;59.928;30.306;2023-11-21T02:12:53;101752.28;;;-4.82;100.00
41254;BME280;26987;59.928;30.306;2023-11-21T02:15:22;101758.72;;;-4.87;100.00
41254;BME280;26987;59.928;30.306;2023-11-21T02:17:53;101748.63;;;-4.95;100.00
41254;BME280;26987;59.928;30.306;2023-11-21T02:20:22;101675.75;;;-5.53;100.00
41254;BME280;26987;59.928;30.306;2023-11-21T02:22:53;101761.44;;;-5.07;100.00
41254;BME280;26987;59.928;30.306;2023-11-21T02:25:24;101741.38;;;-5.24;100.00
41254;BME280;26987;59.928;30.306;2023-11-21T02:27:54;101763.66;;;-4.99;100.00
41254;BME280;26987;59.928;30.306;2023-11-21T02:30:22;101760.91;;;-4.96;100.00
41254;BME280;26987;59.928;30.306;2023-11-21T02:32:52;101754.72;;;-4.95;100.00
41254;BME280;26987;59.928;30.306;2023-11-21T02:35:21;101774.16;;;-4.83;100.00
41254;BME280;26987;59.928;30.306;2023-11-21T02:37:49;101737.81;;;-5.05;100.00
41254;BME280;26987;59.928;30.306;2023-11-21T02:40:18;101766.72;;;-4.90;100.00
41254;BME280;26987;59.928;30.306;2023-11-21T02:42:47;101774.25;;;-4.84;100.00
41254;BME280;26987;59.928;30.306;2023-11-21T02:45:17;101760.94;;;-4.79;100.00
41254;BME280;26987;59.928;30.306;2023-11-21T02:47:47;101765.22;;;-4.78;100.00
41254;BME280;26987;59.928;30.306;2023-11-21T02:50:16;101760.53;;;-4.72;100.00
41254;BME280;26987;59.928;30.306;2023-11-21T02:52:46;101746.09;;;-4.79;100.00
41254;BME280;26987;59.928;30.306;2023-11-21T02:55:14;101758.81;;;-4.73;100.00
41254;BME280;26987;59.928;30.306;2023-11-21T02:57:44;101757.41;;;-4.62;100.00
41254;BME280;26987;59.928;30.306;2023-11-21T03:00:12;101765.63;;;-4.52;100.00
41254;BME280;26987;59.928;30.306;2023-11-21T03:02:41;101694.47;;;-4.93;100.00
41254;BME280;26987;59.928;30.306;2023-11-21T03:05:10;101767.66;;;-4.41;100.00
41254;BME280;26987;59.928;30.306;2023-11-21T03:07:39;101776.28;;;-4.39;100.00
41254;BME280;26987;59.928;30.306;2023-11-21T03:10:08;101784.81;;;-4.52;100.00
41254;BME280;26987;59.928;30.306;2023-11-21T03:12:37;101776.06;;;-4.69;100.00
41254;BME280;26987;59.928;30.306;2023-11-21T03:15:07;101783.16;;;-4.71;100.00
41254;BME280;26987;59.928;30.306;2023-11-21T03:17:36;101790.22;;;-4.73;100.00
41254;BME280;26987;59.928;30.306;2023-11-21T03:20:05;101785.84;;;-4.72;100.00
41254;BME280;26987;59.928;30.306;2023-11-21T03:22:37;101761.50;;;-4.74;100.00
41254;BME280;26987;59.928;30.306;2023-11-21T03:25:06;101797.03;;;-4.52;100.00
41254;BME280;26987;59.928;30.306;2023-11-21T03:27:37;101797.81;;;-4.50;100.00
41254;BME280;26987;59.928;30.306;2023-11-21T03:30:09;101795.69;;;-4.44;100.00
41254;BME280;26987;59.928;30.306;2023-11-21T03:32:37;101805.69;;;-4.34;100.00
41254;BME280;26987;59.928;30.306;2023-11-21T03:35:05;101794.88;;;-4.28;100.00
41254;BME280;26987;59.928;30.306;2023-11-21T03:37:33;101802.13;;;-4.33;100.00
41254;BME280;26987;59.928;30.306;2023-11-21T03:40:02;101805.47;;;-4.47;100.00
41254;BME280;26987;59.928;30.306;2023-11-21T03:42:30;101799.91;;;-4.57;100.00
41254;BME280;26987;59.928;30.306;2023-11-21T03:44:58;101804.13;;;-4.54;100.00
41254;BME280;26987;59.928;30.306;2023-11-21T03:47:28;101803.78;;;-4.64;100.00
41254;BME280;26987;59.928;30.306;2023-11-21T03:49:56;101795.97;;;-4.82;100.00
41254;BME280;26987;59.928;30.306;2023-11-21T03:52:24;101808.13;;;-4.81;100.00
41254;BME280;26987;59.928;30.306;2023-11-21T03:54:54;101809.31;;;-4.71;100.00
41254;BME280;26987;59.928;30.306;2023-11-21T03:57:22;101806.63;;;-4.69;100.00
41254;BME280;26987;59.928;30.306;2023-11-21T03:59:50;101799.31;;;-4.80;100.00
41254;BME280;26987;59.928;30.306;2023-11-21T04:02:18;101799.72;;;-4.88;100.00
41254;BME280;26987;59.928;30.306;2023-11-21T04:04:47;101809.06;;;-4.82;100.00
41254;BME280;26987;59.928;30.306;2023-11-21T04:07:15;101818.59;;;-4.81;100.00
41254;BME280;26987;59.928;30.306;2023-11-21T04:09:44;101808.44;;;-4.87;100.00
41254;BME280;26987;59.928;30.306;2023-11-21T04:12:12;101822.56;;;-4.74;100.00
41254;BME280;26987;59.928;30.306;2023-11-21T04:14:42;101820.81;;;-4.73;100.00
41254;BME280;26987;59.928;30.306;2023-11-21T04:17:10;101826.88;;;-4.73;100.00
41254;BME280;26987;59.928;30.306;2023-11-21T04:19:38;101809.38;;;-4.88;100.00
41254;BME280;26987;59.928;30.306;2023-11-21T04:22:07;101831.28;;;-4.73;100.00
41254;BME280;26987;59.928;30.306;2023-11-21T04:24:36;101835.50;;;-4.71;100.00
41254;BME280;26987;59.928;30.306;2023-11-21T04:27:05;101839.81;;;-4.70;100.00
41254;BME280;26987;59.928;30.306;2023-11-21T04:29:32;101840.22;;;-4.77;100.00
41254;BME280;26987;59.928;30.306;2023-11-21T04:32:01;101852.59;;;-4.81;100.00
41254;BME280;26987;59.928;30.306;2023-11-21T04:34:29;101856.25;;;-4.84;100.00
41254;BME280;26987;59.928;30.306;2023-11-21T04:36:57;101831.28;;;-5.09;99.81
41254;BME280;26987;59.928;30.306;2023-11-21T04:39:28;101871.38;;;-4.90;99.61
41254;BME280;26987;59.928;30.306;2023-11-21T04:41:56;101874.00;;;-4.90;100.00
41254;BME280;26987;59.928;30.306;2023-11-21T04:44:23;101887.47;;;-4.98;100.00
41254;BME280;26987;59.928;30.306;2023-11-21T04:46:51;101883.09;;;-5.15;100.00
41254;BME280;26987;59.928;30.306;2023-11-21T04:49:19;101866.59;;;-5.35;100.00
41254;BME280;26987;59.928;30.306;2023-11-21T04:51:47;101879.66;;;-5.35;100.00
41254;BME280;26987;59.928;30.306;2023-11-21T04:54:15;101879.31;;;-5.47;100.00
41254;BME280;26987;59.928;30.306;2023-11-21T04:56:45;101864.38;;;-5.62;100.00
41254;BME280;26987;59.928;30.306;2023-11-21T04:59:12;101832.78;;;-5.95;100.00
41254;BME280;26987;59.928;30.306;2023-11-21T05:01:40;101880.63;;;-5.75;100.00
41254;BME280;26987;59.928;30.306;2023-11-21T05:04:08;101881.50;;;-5.74;100.00
41254;BME280;26987;59.928;30.306;2023-11-21T05:06:36;101827.44;;;-6.11;100.00
41254;BME280;26987;59.928;30.306;2023-11-21T05:09:04;101880.91;;;-5.81;100.00
41254;BME280;26987;59.928;30.306;2023-11-21T05:11:38;101882.00;;;-5.85;100.00
41254;BME280;26987;59.928;30.306;2023-11-21T05:14:08;101880.44;;;-5.89;100.00
41254;BME280;26987;59.928;30.306;2023-11-21T05:16:37;101885.66;;;-5.89;100.00
41254;BME280;26987;59.928;30.306;2023-11-21T05:19:05;101884.81;;;-5.90;100.00
41254;BME280;26987;59.928;30.306;2023-11-21T05:21:33;101836.28;;;-6.13;100.00
41254;BME280;26987;59.928;30.306;2023-11-21T05:24:02;101894.78;;;-5.98;100.00
41254;BME280;26987;59.928;30.306;2023-11-21T05:26:31;101889.94;;;-6.06;100.00
41254;BME280;26987;59.928;30.306;2023-11-21T05:28:59;101887.31;;;-6.06;100.00
41254;BME280;26987;59.928;30.306;2023-11-21T05:31:28;101902.06;;;-6.05;100.00
41254;BME280;26987;59.928;30.306;2023-11-21T05:33:56;101882.56;;;-6.17;100.00
41254;BME280;26987;59.928;30.306;2023-11-21T05:36:24;101910.91;;;-6.08;100.00
41254;BME280;26987;59.928;30.306;2023-11-21T05:38:52;101913.44;;;-6.06;100.00
41254;BME280;26987;59.928;30.306;2023-11-21T05:41:20;101910.81;;;-6.06;100.00
41254;BME280;26987;59.928;30.306;2023-11-21T05:43:48;101916.91;;;-6.05;100.00
41254;BME280;26987;59.928;30.306;2023-11-21T05:46:16;101905.38;;;-6.21;100.00
41254;BME280;26987;59.928;30.306;2023-11-21T05:48:45;101926.56;;;-6.08;100.00
41254;BME280;26987;59.928;30.306;2023-11-21T05:51:13;101925.56;;;-6.05;100.00
41254;BME280;26987;59.928;30.306;2023-11-21T05:53:41;101920.75;;;-6.14;100.00
41254;BME280;26987;59.928;30.306;2023-11-21T05:56:09;101918.94;;;-6.12;100.00
41254;BME280;26987;59.928;30.306;2023-11-21T05:58:37;101925.00;;;-6.12;100.00
41254;BME280;26987;59.928;30.306;2023-11-21T06:01:05;101936.03;;;-6.05;100.00
41254;BME280;26987;59.928;30.306;2023-11-21T06:03:35;101937.06;;;-6.09;100.00
41254;BME280;26987;59.928;30.306;2023-11-21T06:06:06;101954.88;;;-5.98;100.00
41254;BME280;26987;59.928;30.306;2023-11-21T06:08:35;101925.84;;;-6.11;100.00
41254;BME280;26987;59.928;30.306;2023-11-21T06:11:03;101944.72;;;-6.04;100.00
41254;BME280;26987;59.928;30.306;2023-11-21T06:13:31;101961.03;;;-6.01;100.00
41254;BME280;26987;59.928;30.306;2023-11-21T06:16:00;101945.19;;;-6.15;100.00
41254;BME280;26987;59.928;30.306;2023-11-21T06:18:28;101914.06;;;-6.41;100.00
41254;BME280;26987;59.928;30.306;2023-11-21T06:20:56;101971.28;;;-6.15;100.00
41254;BME280;26987;59.928;30.306;2023-11-21T06:23:26;101971.56;;;-6.22;100.00
41254;BME280;26987;59.928;30.306;2023-11-21T06:25:54;101973.28;;;-6.21;100.00
41254;BME280;26987;59.928;30.306;2023-11-21T06:28:23;101990.63;;;-6.19;100.00
41254;BME280;26987;59.928;30.306;2023-11-21T06:30:51;101970.53;;;-6.38;100.00
41254;BME280;26987;59.928;30.306;2023-11-21T06:33:20;101972.09;;;-6.34;100.00
41254;BME280;26987;59.928;30.306;2023-11-21T06:35:48;101997.75;;;-6.23;100.00
41254;BME280;26987;59.928;30.306;2023-11-21T06:38:16;101975.56;;;-6.34;100.00
41254;BME280;26987;59.928;30.306;2023-11-21T06:40:45;101988.09;;;-6.21;100.00
41254;BME280;26987;59.928;30.306;2023-11-21T06:43:13;101998.34;;;-6.16;100.00
41254;BME280;26987;59.928;30.306;2023-11-21T06:45:42;101999.91;;;-6.12;100.00
41254;BME280;26987;59.928;30.306;2023-11-21T06:48:10;102011.78;;;-6.05;99.95
41254;BME280;26987;59.928;30.306;2023-11-21T06:50:38;102006.75;;;-6.10;99.30
41254;BME280;26987;59.928;30.306;2023-11-21T06:53:06;102016.69;;;-5.99;98.40
41254;BME280;26987;59.928;30.306;2023-11-21T06:55:36;102009.00;;;-6.02;97.10
41254;BME280;26987;59.928;30.306;2023-11-21T06:58:05;102025.19;;;-5.93;97.19
41254;BME280;26987;59.928;30.306;2023-11-21T07:00:34;102022.59;;;-5.93;96.16
41254;BME280;26987;59.928;30.306;2023-11-21T07:03:10;101995.59;;;-6.13;95.02
41254;BME280;26987;59.928;30.306;2023-11-21T07:05:38;102022.59;;;-5.93;95.38
41254;BME280;26987;59.928;30.306;2023-11-21T07:08:06;102025.25;;;-5.95;93.81
41254;BME280;26987;59.928;30.306;2023-11-21T07:10:34;102028.72;;;-5.95;93.10
41254;BME280;26987;59.928;30.306;2023-11-21T07:13:03;102027.94;;;-5.97;93.29
41254;BME280;26987;59.928;30.306;2023-11-21T07:15:32;102001.66;;;-6.13;92.77
41254;BME280;26987;59.928;30.306;2023-11-21T07:18:01;102026.22;;;-5.98;92.17
41254;BME280;26987;59.928;30.306;2023-11-21T07:20:28;102030.50;;;-5.95;92.58
41254;BME280;26987;59.928;30.306;2023-11-21T07:22:57;102037.53;;;-5.97;92.20
41254;BME280;26987;59.928;30.306;2023-11-21T07:25:26;102032.25;;;-5.96;92.41
41254;BME280;26987;59.928;30.306;2023-11-21T07:27:53;102034.72;;;-5.92;92.38
41254;BME280;26987;59.928;30.306;2023-11-21T07:30:22;102035.94;;;-5.80;91.05
41254;BME280;26987;59.928;30.306;2023-11-21T07:32:51;102036.31;;;-5.69;91.14
41254;BME280;26987;59.928;30.306;2023-11-21T07:35:19;102031.53;;;-5.78;89.79
41254;BME280;26987;59.928;30.306;2023-11-21T07:37:47;102051.66;;;-5.61;88.38
41254;BME280;26987;59.928;30.306;2023-11-21T07:40:15;102026.00;;;-5.72;88.27
41254;BME280;26987;59.928;30.306;2023-11-21T07:42:47;102050.66;;;-5.59;87.26
41254;BME280;26987;59.928;30.306;2023-11-21T07:45:23;102048.78;;;-5.55;87.09
41254;BME280;26987;59.928;30.306;2023-11-21T07:47:55;102058.97;;;-5.49;87.20
41254;BME280;26987;59.928;30.306;2023-11-21T07:50:23;102069.16;;;-5.42;87.16
41254;BME280;26987;59.928;30.306;2023-11-21T07:52:54;102066.41;;;-5.39;85.74
41254;BME280;26987;59.928;30.306;2023-11-21T07:55:22;102058.41;;;-5.36;85.30
41254;BME280;26987;59.928;30.306;2023-11-21T07:57:51;102036.50;;;-5.53;85.46
41254;BME280;26987;59.928;30.306;2023-11-21T08:00:19;102059.97;;;-5.32;85.35
41254;BME280;26987;59.928;30.306;2023-11-21T08:02:47;102060.81;;;-5.32;84.21
41254;BME280;26987;59.928;30.306;2023-11-21T08:05:19;102070.78;;;-5.21;84.38
41254;BME280;26987;59.928;30.306;2023-11-21T08:07:49;102047.81;;;-5.33;84.15
41254;BME280;26987;59.928;30.306;2023-11-21T08:10:17;102056.28;;;-5.28;83.81
41254;BME280;26987;59.928;30.306;2023-11-21T08:12:45;102071.44;;;-5.15;85.19
41254;BME280;26987;59.928;30.306;2023-11-21T08:15:14;102052.91;;;-5.11;84.63
41254;BME280;26987;59.928;30.306;2023-11-21T08:17:42;102044.34;;;-5.14;85.45
41254;BME280;26987;59.928;30.306;2023-11-21T08:20:11;102057.81;;;-5.04;87.15
41254;BME280;26987;59.928;30.306;2023-11-21T08:22:44;102054.53;;;-5.08;88.38
41254;BME280;26987;59.928;30.306;2023-11-21T08:25:14;102051.41;;;-5.16;89.41
41254;BME280;26987;59.928;30.306;2023-11-21T08:27:43;102050.63;;;-5.19;90.46
41254;BME280;26987;59.928;30.306;2023-11-21T08:30:12;102045.69;;;-5.25;90.35
41254;BME280;26987;59.928;30.306;2023-11-21T08:32:40;102047.66;;;-5.30;91.04
41254;BME280;26987;59.928;30.306;2023-11-21T08:35:08;102052.59;;;-5.24;91.52
41254;BME280;26987;59.928;30.306;2023-11-21T08:37:36;102057.69;;;-5.21;91.96
41254;BME280;26987;59.928;30.306;2023-11-21T08:40:08;102044.97;;;-5.28;92.44
41254;BME280;26987;59.928;30.306;2023-11-21T08:42:38;102050.38;;;-5.12;91.63
41254;BME280;26987;59.928;30.306;2023-11-21T08:45:07;102062.09;;;-5.02;92.92
41254;BME280;26987;59.928;30.306;2023-11-21T08:47:35;102054.16;;;-5.00;91.56
41254;BME280;26987;59.928;30.306;2023-11-21T08:50:04;102059.81;;;-4.90;91.52
41254;BME280;26987;59.928;30.306;2023-11-21T08:52:34;102048.16;;;-5.02;91.79
41254;BME280;26987;59.928;30.306;2023-11-21T08:55:04;102043.13;;;-5.07;91.18
41254;BME280;26987;59.928;30.306;2023-11-21T08:57:36;102017.72;;;-5.23;91.63
41254;BME280;26987;59.928;30.306;2023-11-21T09:00:05;102058.25;;;-4.95;92.03
41254;BME280;26987;59.928;30.306;2023-11-21T09:02:37;102034.22;;;-5.03;91.93
41254;BME280;26987;59.928;30.306;2023-11-21T09:05:05;102058.88;;;-4.89;92.04
41254;BME280;26987;59.928;30.306;2023-11-21T09:07:34;102052.38;;;-5.00;91.56
41254;BME280;26987;59.928;30.306;2023-11-21T09:10:02;102048.22;;;-5.04;91.99
41254;BME280;26987;59.928;30.306;2023-11-21T09:12:32;102070.41;;;-4.94;92.64
41254;BME280;26987;59.928;30.306;2023-11-21T09:15:03;102068.00;;;-4.79;93.30
41254;BME280;26987;59.928;30.306;2023-11-21T09:17:32;102066.00;;;-4.74;91.58
41254;BME280;26987;59.928;30.306;2023-11-21T09:20:05;102067.09;;;-4.60;93.05
41254;BME280;26987;59.928;30.306;2023-11-21T09:22:36;102059.28;;;-4.43;92.21
41254;BME280;26987;59.928;30.306;2023-11-21T09:25:05;102061.06;;;-4.25;91.74
41254;BME280;26987;59.928;30.306;2023-11-21T09:27:34;102044.50;;;-4.26;91.15
41254;BME280;26987;59.928;30.306;2023-11-21T09:30:06;102070.44;;;-4.03;90.48
41254;BME280;26987;59.928;30.306;2023-11-21T09:32:37;102041.03;;;-4.26;89.38
41254;BME280;26987;59.928;30.306;2023-11-21T09:35:06;102048.41;;;-4.17;91.36
41254;BME280;26987;59.928;30.306;2023-11-21T09:37:34;102059.28;;;-4.07;90.69
41254;BME280;26987;59.928;30.306;2023-11-21T09:40:05;102064.84;;;-4.13;90.80
41254;BME280;26987;59.928;30.306;2023-11-21T09:42:40;102068.63;;;-4.19;91.11
41254;BME280;26987;59.928;30.306;2023-11-21T09:45:17;102067.22;;;-4.09;92.48
41254;BME280;26987;59.928;30.306;2023-11-21T09:47:46;102067.22;;;-4.09;91.65
41254;BME280;26987;59.928;30.306;2023-11-21T09:50:17;102055.28;;;-3.97;92.24
41254;BME280;26987;59.928;30.306;2023-11-21T09:52:55;102064.31;;;-3.69;91.06
41254;BME280;26987;59.928;30.306;2023-11-21T09:55:26;102076.56;;;-3.51;89.68
41254;BME280;26987;59.928;30.306;2023-11-21T09:57:56;102069.44;;;-3.49;89.31
41254;BME280;26987;59.928;30.306;2023-11-21T10:00:25;102067.50;;;-3.46;89.33
41254;BME280;26987;59.928;30.306;2023-11-21T10:02:59;102072.34;;;-3.38;89.88
41254;BME280;26987;59.928;30.306;2023-11-21T10:05:28;102073.19;;;-3.37;89.24
41254;BME280;26987;59.928;30.306;2023-11-21T10:08:00;102067.97;;;-3.37;89.60
41254;BME280;26987;59.928;30.306;2023-11-21T10:10:30;102078.25;;;-3.34;90.17
41254;BME280;26987;59.928;30.306;2023-11-21T10:13:03;102081.88;;;-3.53;92.43
41254;BME280;26987;59.928;30.306;2023-11-21T10:15:34;102079.34;;;-3.55;95.20
41254;BME280;26987;59.928;30.306;2023-11-21T10:18:03;102076.25;;;-3.63;96.96
41254;BME280;26987;59.928;30.306;2023-11-21T10:20:33;102085.50;;;-3.56;97.77
41254;BME280;26987;59.928;30.306;2023-11-21T10:23:01;102090.84;;;-3.57;98.34
41254;BME280;26987;59.928;30.306;2023-11-21T10:25:30;102082.97;;;-3.57;99.90
41254;BME280;26987;59.928;30.306;2023-11-21T10:27:59;102072.81;;;-3.63;100.00
41254;BME280;26987;59.928;30.306;2023-11-21T10:30:33;102087.91;;;-3.51;100.00
41254;BME280;26987;59.928;30.306;2023-11-21T10:33:04;102062.63;;;-3.70;100.00
41254;BME280;26987;59.928;30.306;2023-11-21T10:35:39;102091.03;;;-3.44;100.00
41254;BME280;26987;59.928;30.306;2023-11-21T10:38:07;102087.91;;;-3.51;100.00
41254;BME280;26987;59.928;30.306;2023-11-21T10:40:38;102091.97;;;-3.45;100.00
41254;BME280;26987;59.928;30.306;2023-11-21T10:43:09;102063.84;;;-3.59;100.00
41254;BME280;26987;59.928;30.306;2023-11-21T10:45:38;102076.66;;;-3.37;100.00
41254;BME280;26987;59.928;30.306;2023-11-21T10:48:07;102086.66;;;-3.27;100.00
41254;BME280;26987;59.928;30.306;2023-11-21T10:50:37;102083.59;;;-3.36;100.00
41254;BME280;26987;59.928;30.306;2023-11-21T10:53:05;102098.41;;;-3.35;100.00
41254;BME280;26987;59.928;30.306;2023-11-21T10:55:34;102097.06;;;-3.42;100.00
41254;BME280;26987;59.928;30.306;2023-11-21T10:58:05;102089.91;;;-3.56;100.00
41254;BME280;26987;59.928;30.306;2023-11-21T11:00:33;102102.69;;;-3.50;100.00
41254;BME280;26987;59.928;30.306;2023-11-21T11:03:03;102105.16;;;-3.47;100.00
41254;BME280;26987;59.928;30.306;2023-11-21T11:05:31;102111.16;;;-3.45;100.00
41254;BME280;26987;59.928;30.306;2023-11-21T11:08:04;102116.53;;;-3.30;100.00
41254;BME280;26987;59.928;30.306;2023-11-21T11:10:32;102111.63;;;-3.36;100.00
41254;BME280;26987;59.928;30.306;2023-11-21T11:13:00;102115.00;;;-3.34;100.00
41254;BME280;26987;59.928;30.306;2023-11-21T11:15:28;102108.38;;;-3.42;100.00
41254;BME280;26987;59.928;30.306;2023-11-21T11:17:56;102109.00;;;-3.36;100.00
41254;BME280;26987;59.928;30.306;2023-11-21T11:20:29;102086.72;;;-3.45;100.00
41254;BME280;26987;59.928;30.306;2023-11-21T11:23:10;102107.91;;;-3.32;100.00
41254;BME280;26987;59.928;30.306;2023-11-21T11:25:56;102100.97;;;-3.33;100.00
41254;BME280;26987;59.928;30.306;2023-11-21T11:28:37;102103.34;;;-3.28;100.00
41254;BME280;26987;59.928;30.306;2023-11-21T11:31:15;102104.00;;;-3.25;100.00
41254;BME280;26987;59.928;30.306;2023-11-21T11:33:58;102093.91;;;-3.49;100.00
41254;BME280;26987;59.928;30.306;2023-11-21T11:36:34;102096.84;;;-3.55;100.00
41254;BME280;26987;59.928;30.306;2023-11-21T11:39:29;102102.47;;;-3.45;100.00
41254;BME280;26987;59.928;30.306;2023-11-21T11:42:01;102099.91;;;-3.47;100.00
41254;BME280;26987;59.928;30.306;2023-11-21T11:44:47;102103.13;;;-3.42;100.00
41254;BME280;26987;59.928;30.306;2023-11-21T11:47:20;102108.38;;;-3.42;100.00
41254;BME280;26987;59.928;30.306;2023-11-21T11:49:59;102098.75;;;-3.41;100.00
41254;BME280;26987;59.928;30.306;2023-11-21T11:52:39;102103.66;;;-3.35;100.00
41254;BME280;26987;59.928;30.306;2023-11-21T11:55:09;102104.69;;;-3.55;100.00
41254;BME280;26987;59.928;30.306;2023-11-21T11:57:38;102099.50;;;-3.73;100.00
41254;BME280;26987;59.928;30.306;2023-11-21T12:00:33;102105.09;;;-3.63;100.00
41254;BME280;26987;59.928;30.306;2023-11-21T12:03:04;102115.66;;;-3.64;100.00
41254;BME280;26987;59.928;30.306;2023-11-21T12:05:34;102102.28;;;-3.76;100.00
41254;BME280;26987;59.928;30.306;2023-11-21T12:08:07;102110.75;;;-3.71;100.00
41254;BME280;26987;59.928;30.306;2023-11-21T12:10:36;102056.81;;;-4.10;100.00
41254;BME280;26987;59.928;30.306;2023-11-21T12:13:06;102114.59;;;-3.78;100.00
41254;BME280;26987;59.928;30.306;2023-11-21T12:15:35;102101.06;;;-3.86;100.00
41254;BME280;26987;59.928;30.306;2023-11-21T12:18:03;102114.72;;;-3.80;100.00
41254;BME280;26987;59.928;30.306;2023-11-21T12:20:32;102132.19;;;-3.80;100.00
41254;BME280;26987;59.928;30.306;2023-11-21T12:23:06;102117.56;;;-3.84;100.00
41254;BME280;26987;59.928;30.306;2023-11-21T12:25:35;102126.81;;;-3.77;100.00
41254;BME280;26987;59.928;30.306;2023-11-21T12:28:03;102127.31;;;-3.70;100.00
41254;BME280;26987;59.928;30.306;2023-11-21T12:30:34;102120.63;;;-3.76;100.00
41254;BME280;26987;59.928;30.306;2023-11-21T12:33:03;102136.50;;;-3.79;100.00
41254;BME280;26987;59.928;30.306;2023-11-21T12:35:34;102134.91;;;-3.82;100.00
41254;BME280;26987;59.928;30.306;2023-11-21T12:38:03;102130.34;;;-3.78;100.00
41254;BME280;26987;59.928;30.306;2023-11-21T12:40:33;102147.25;;;-3.66;100.00
41254;BME280;26987;59.928;30.306;2023-11-21T12:43:01;102132.50;;;-3.69;100.00
41254;BME280;26987;59.928;30.306;2023-11-21T12:45:30;102125.41;;;-3.67;100.00